DHWAZ EDDH-EDWI
Flight info
| Callsign | DHWAZ |
|---|---|
| Flight time | 0h 47m |
| Altitude | 1111 |
| Route | VFR |
| Aircraft | UH1/L-S/S |
Departure
| Time | 2026-04-26 14:26 |
|---|---|
| Airport | Hamburg Helmut Schmidt Airport (EDDH) |
Arrival
| Time | 2026-04-26 15:13 |
|---|---|
| Airport | JadeWeser Airport (EDWI) |
| Time | Latitude | Longitude | Altitude | Speed | Heading |
|---|---|---|---|---|---|
| 2026-04-26 14:06 | 53.62562 | 9.99533 | 42 ft | 0 kts | 259° |
| 2026-04-26 14:21 | 53.62559 | 9.99524 | 44 ft | 3 kts | 263° |
| 2026-04-26 14:21 | 53.62542 | 9.99438 | 48 ft | 11 kts | 262° |
| 2026-04-26 14:21 | 53.62563 | 9.99339 | 52 ft | 11 kts | 348° |
| 2026-04-26 14:21 | 53.62580 | 9.99237 | 56 ft | 17 kts | 262° |
| 2026-04-26 14:22 | 53.62554 | 9.99006 | 58 ft | 19 kts | 255° |
| 2026-04-26 14:22 | 53.62528 | 9.98787 | 57 ft | 16 kts | 260° |
| 2026-04-26 14:22 | 53.62500 | 9.98547 | 58 ft | 20 kts | 261° |
| 2026-04-26 14:22 | 53.62550 | 9.98471 | 52 ft | 5 kts | 355° |
| 2026-04-26 14:23 | 53.62561 | 9.98469 | 47 ft | 2 kts | 348° |
| 2026-04-26 14:23 | 53.62561 | 9.98467 | 47 ft | 1 kts | 349° |
| 2026-04-26 14:23 | 53.62561 | 9.98466 | 73 ft | 4 kts | 348° |
| 2026-04-26 14:23 | 53.62684 | 9.98130 | 129 ft | 69 kts | 264° |
| 2026-04-26 14:24 | 53.62464 | 9.97315 | 290 ft | 82 kts | 243° |
| 2026-04-26 14:24 | 53.62337 | 9.96865 | 407 ft | 84 kts | 251° |
| 2026-04-26 14:24 | 53.62257 | 9.96013 | 524 ft | 80 kts | 279° |
| 2026-04-26 14:24 | 53.62192 | 9.94989 | 645 ft | 94 kts | 254° |
| 2026-04-26 14:25 | 53.61974 | 9.93865 | 641 ft | 106 kts | 242° |
| 2026-04-26 14:25 | 53.61615 | 9.92736 | 586 ft | 109 kts | 238° |
| 2026-04-26 14:25 | 53.61267 | 9.91865 | 648 ft | 102 kts | 234° |
| 2026-04-26 14:26 | 53.60950 | 9.91051 | 666 ft | 102 kts | 237° |
| 2026-04-26 14:26 | 53.60557 | 9.90036 | 691 ft | 104 kts | 235° |
| 2026-04-26 14:26 | 53.60109 | 9.89065 | 728 ft | 104 kts | 228° |
| 2026-04-26 14:26 | 53.59619 | 9.88150 | 710 ft | 106 kts | 226° |
| 2026-04-26 14:27 | 53.59115 | 9.87238 | 682 ft | 107 kts | 229° |
| 2026-04-26 14:27 | 53.58641 | 9.86298 | 740 ft | 104 kts | 230° |
| 2026-04-26 14:27 | 53.58229 | 9.85319 | 823 ft | 104 kts | 237° |
| 2026-04-26 14:27 | 53.57848 | 9.84259 | 833 ft | 106 kts | 240° |
| 2026-04-26 14:28 | 53.57579 | 9.83126 | 863 ft | 105 kts | 249° |
| 2026-04-26 14:28 | 53.57293 | 9.81931 | 790 ft | 109 kts | 244° |
| 2026-04-26 14:28 | 53.56972 | 9.80824 | 767 ft | 103 kts | 241° |
| 2026-04-26 14:28 | 53.56662 | 9.79750 | 742 ft | 101 kts | 247° |
| 2026-04-26 14:29 | 53.56466 | 9.78640 | 735 ft | 96 kts | 258° |
| 2026-04-26 14:29 | 53.56396 | 9.77556 | 851 ft | 92 kts | 266° |
| 2026-04-26 14:29 | 53.56380 | 9.76476 | 875 ft | 97 kts | 266° |
| 2026-04-26 14:29 | 53.56287 | 9.75282 | 735 ft | 107 kts | 256° |
| 2026-04-26 14:30 | 53.56159 | 9.74080 | 639 ft | 102 kts | 266° |
| 2026-04-26 14:30 | 53.56218 | 9.72929 | 656 ft | 96 kts | 278° |
| 2026-04-26 14:30 | 53.56386 | 9.71851 | 631 ft | 98 kts | 283° |
| 2026-04-26 14:30 | 53.56574 | 9.70712 | 503 ft | 102 kts | 282° |
| 2026-04-26 14:31 | 53.56753 | 9.69654 | 657 ft | 89 kts | 287° |
| 2026-04-26 14:31 | 53.56973 | 9.68716 | 884 ft | 82 kts | 295° |
| 2026-04-26 14:31 | 53.57305 | 9.67868 | 1036 ft | 93 kts | 301° |
| 2026-04-26 14:31 | 53.57634 | 9.66906 | 1127 ft | 96 kts | 297° |
| 2026-04-26 14:32 | 53.57980 | 9.65900 | 1163 ft | 101 kts | 294° |
| 2026-04-26 14:32 | 53.58307 | 9.64835 | 1127 ft | 103 kts | 292° |
| 2026-04-26 14:32 | 53.58639 | 9.63786 | 1081 ft | 105 kts | 295° |
| 2026-04-26 14:32 | 53.58965 | 9.62684 | 1054 ft | 102 kts | 295° |
| 2026-04-26 14:33 | 53.59320 | 9.61695 | 1103 ft | 99 kts | 299° |
| 2026-04-26 14:33 | 53.59707 | 9.60725 | 1109 ft | 101 kts | 301° |
| 2026-04-26 14:33 | 53.60127 | 9.59768 | 1070 ft | 102 kts | 303° |
| 2026-04-26 14:33 | 53.60554 | 9.58807 | 1046 ft | 103 kts | 304° |
| 2026-04-26 14:34 | 53.60980 | 9.57848 | 1068 ft | 100 kts | 304° |
| 2026-04-26 14:34 | 53.61402 | 9.56907 | 1073 ft | 100 kts | 305° |
| 2026-04-26 14:34 | 53.61866 | 9.56009 | 1039 ft | 104 kts | 308° |
| 2026-04-26 14:34 | 53.62343 | 9.55090 | 979 ft | 104 kts | 309° |
| 2026-04-26 14:35 | 53.62898 | 9.54342 | 990 ft | 99 kts | 326° |
| 2026-04-26 14:35 | 53.63528 | 9.53859 | 998 ft | 100 kts | 331° |
| 2026-04-26 14:35 | 53.64152 | 9.53300 | 931 ft | 102 kts | 322° |
| 2026-04-26 14:35 | 53.64747 | 9.52708 | 994 ft | 97 kts | 327° |
| 2026-04-26 14:36 | 53.65352 | 9.52188 | 1023 ft | 98 kts | 328° |
| 2026-04-26 14:36 | 53.65960 | 9.51685 | 1052 ft | 99 kts | 329° |
| 2026-04-26 14:36 | 53.66598 | 9.51222 | 1083 ft | 99 kts | 333° |
| 2026-04-26 14:36 | 53.67248 | 9.50786 | 1090 ft | 101 kts | 333° |
| 2026-04-26 14:37 | 53.67889 | 9.50316 | 1113 ft | 101 kts | 330° |
| 2026-04-26 14:37 | 53.68530 | 9.49807 | 1099 ft | 102 kts | 329° |
| 2026-04-26 14:37 | 53.69177 | 9.49315 | 1118 ft | 101 kts | 330° |
| 2026-04-26 14:37 | 53.69792 | 9.48823 | 1217 ft | 96 kts | 327° |
| 2026-04-26 14:38 | 53.70387 | 9.48335 | 1328 ft | 96 kts | 331° |
| 2026-04-26 14:38 | 53.71017 | 9.47848 | 1319 ft | 102 kts | 328° |
| 2026-04-26 14:38 | 53.71645 | 9.47266 | 1312 ft | 102 kts | 325° |
| 2026-04-26 14:38 | 53.72049 | 9.46873 | 1329 ft | 101 kts | 326° |
| 2026-04-26 14:39 | 53.72824 | 9.46163 | 1380 ft | 101 kts | 328° |
| 2026-04-26 14:39 | 53.73468 | 9.45623 | 1394 ft | 104 kts | 326° |
| 2026-04-26 14:39 | 53.74078 | 9.45017 | 1471 ft | 102 kts | 321° |
| 2026-04-26 14:39 | 53.74619 | 9.44210 | 1399 ft | 106 kts | 308° |
| 2026-04-26 14:40 | 53.75073 | 9.43205 | 1322 ft | 105 kts | 299° |
| 2026-04-26 14:40 | 53.75464 | 9.42181 | 1334 ft | 102 kts | 300° |
| 2026-04-26 14:40 | 53.75859 | 9.41170 | 1337 ft | 103 kts | 298° |
| 2026-04-26 14:40 | 53.76234 | 9.40138 | 1331 ft | 103 kts | 297° |
| 2026-04-26 14:41 | 53.76566 | 9.39077 | 1286 ft | 104 kts | 293° |
| 2026-04-26 14:41 | 53.76850 | 9.37967 | 1231 ft | 103 kts | 288° |
| 2026-04-26 14:41 | 53.77073 | 9.36814 | 1183 ft | 103 kts | 284° |
| 2026-04-26 14:41 | 53.77253 | 9.35631 | 1132 ft | 103 kts | 281° |
| 2026-04-26 14:42 | 53.77380 | 9.34583 | 1142 ft | 103 kts | 278° |
| 2026-04-26 14:42 | 53.77513 | 9.33408 | 1162 ft | 102 kts | 279° |
| 2026-04-26 14:42 | 53.77642 | 9.32219 | 1171 ft | 103 kts | 278° |
| 2026-04-26 14:42 | 53.77768 | 9.31042 | 1225 ft | 102 kts | 280° |
| 2026-04-26 14:43 | 53.77937 | 9.29889 | 1301 ft | 100 kts | 284° |
| 2026-04-26 14:43 | 53.78153 | 9.28751 | 1302 ft | 102 kts | 287° |
| 2026-04-26 14:43 | 53.78406 | 9.27628 | 1322 ft | 103 kts | 290° |
| 2026-04-26 14:43 | 53.78669 | 9.26477 | 1260 ft | 106 kts | 284° |
| 2026-04-26 14:44 | 53.78821 | 9.25277 | 1235 ft | 105 kts | 278° |
| 2026-04-26 14:44 | 53.78925 | 9.24063 | 1283 ft | 102 kts | 275° |
| 2026-04-26 14:44 | 53.79032 | 9.22883 | 1341 ft | 101 kts | 278° |
| 2026-04-26 14:44 | 53.79176 | 9.21699 | 1362 ft | 103 kts | 281° |
| 2026-04-26 14:45 | 53.79349 | 9.20507 | 1366 ft | 103 kts | 282° |
| 2026-04-26 14:45 | 53.79472 | 9.19736 | 1419 ft | 101 kts | 284° |
| 2026-04-26 14:45 | 53.79797 | 9.18212 | 1474 ft | 106 kts | 289° |
| 2026-04-26 14:45 | 53.80071 | 9.17087 | 1528 ft | 100 kts | 290° |
| 2026-04-26 14:46 | 53.80329 | 9.15980 | 1535 ft | 103 kts | 288° |
| 2026-04-26 14:46 | 53.80531 | 9.14820 | 1545 ft | 104 kts | 281° |
| 2026-04-26 14:46 | 53.80638 | 9.13634 | 1599 ft | 102 kts | 275° |
| 2026-04-26 14:46 | 53.80657 | 9.12437 | 1588 ft | 102 kts | 266° |
| 2026-04-26 14:47 | 53.80535 | 9.11270 | 1505 ft | 105 kts | 253° |
| 2026-04-26 14:47 | 53.80235 | 9.10080 | 1483 ft | 109 kts | 243° |
| 2026-04-26 14:47 | 53.79865 | 9.08991 | 1465 ft | 105 kts | 242° |
| 2026-04-26 14:47 | 53.79502 | 9.07911 | 1430 ft | 105 kts | 240° |
| 2026-04-26 14:48 | 53.79100 | 9.06853 | 1438 ft | 109 kts | 238° |
| 2026-04-26 14:48 | 53.78653 | 9.05869 | 1499 ft | 105 kts | 233° |
| 2026-04-26 14:48 | 53.78157 | 9.04918 | 1570 ft | 109 kts | 228° |
| 2026-04-26 14:48 | 53.77601 | 9.04049 | 1637 ft | 111 kts | 220° |
| 2026-04-26 14:49 | 53.76979 | 9.03290 | 1734 ft | 110 kts | 217° |
| 2026-04-26 14:49 | 53.76356 | 9.02549 | 1797 ft | 109 kts | 215° |
| 2026-04-26 14:49 | 53.75709 | 9.01852 | 1848 ft | 111 kts | 211° |
| 2026-04-26 14:49 | 53.75008 | 9.01279 | 1936 ft | 112 kts | 201° |
| 2026-04-26 14:50 | 53.74266 | 9.00946 | 1928 ft | 112 kts | 188° |
| 2026-04-26 14:50 | 53.73468 | 9.00761 | 1904 ft | 117 kts | 191° |
| 2026-04-26 14:50 | 53.72700 | 9.00455 | 2006 ft | 109 kts | 198° |
| 2026-04-26 14:50 | 53.72006 | 8.99990 | 2011 ft | 111 kts | 207° |
| 2026-04-26 14:51 | 53.71317 | 8.99388 | 2003 ft | 110 kts | 209° |
| 2026-04-26 14:51 | 53.70662 | 8.98745 | 2005 ft | 108 kts | 213° |
| 2026-04-26 14:51 | 53.70033 | 8.98020 | 1990 ft | 110 kts | 217° |
| 2026-04-26 14:51 | 53.69416 | 8.97237 | 1965 ft | 109 kts | 218° |
| 2026-04-26 14:52 | 53.68834 | 8.96439 | 1961 ft | 110 kts | 223° |
| 2026-04-26 14:52 | 53.68281 | 8.95550 | 2026 ft | 107 kts | 225° |
| 2026-04-26 14:52 | 53.67750 | 8.94666 | 2034 ft | 108 kts | 226° |
| 2026-04-26 14:52 | 53.67403 | 8.94054 | 2052 ft | 107 kts | 227° |
| 2026-04-26 14:53 | 53.66890 | 8.93124 | 2038 ft | 109 kts | 225° |
| 2026-04-26 14:53 | 53.66126 | 8.92001 | 1979 ft | 110 kts | 219° |
| 2026-04-26 14:53 | 53.65514 | 8.91240 | 2001 ft | 109 kts | 216° |
| 2026-04-26 14:53 | 53.65089 | 8.90764 | 1997 ft | 110 kts | 216° |
| 2026-04-26 14:54 | 53.64495 | 8.89942 | 1965 ft | 110 kts | 221° |
| 2026-04-26 14:54 | 53.63943 | 8.89066 | 1931 ft | 109 kts | 225° |
| 2026-04-26 14:54 | 53.63444 | 8.88089 | 1875 ft | 110 kts | 231° |
| 2026-04-26 14:54 | 53.62995 | 8.87070 | 1863 ft | 107 kts | 235° |
| 2026-04-26 14:55 | 53.62577 | 8.86040 | 1822 ft | 107 kts | 237° |
| 2026-04-26 14:55 | 53.62150 | 8.85001 | 1777 ft | 108 kts | 234° |
| 2026-04-26 14:55 | 53.61692 | 8.83991 | 1739 ft | 109 kts | 232° |
| 2026-04-26 14:55 | 53.61197 | 8.83030 | 1727 ft | 109 kts | 229° |
| 2026-04-26 14:56 | 53.60722 | 8.82051 | 1749 ft | 108 kts | 234° |
| 2026-04-26 14:56 | 53.60302 | 8.81037 | 1770 ft | 106 kts | 236° |
| 2026-04-26 14:56 | 53.59887 | 8.79981 | 1779 ft | 108 kts | 236° |
| 2026-04-26 14:56 | 53.59486 | 8.78922 | 1783 ft | 106 kts | 238° |
| 2026-04-26 14:57 | 53.59111 | 8.77839 | 1762 ft | 107 kts | 241° |
| 2026-04-26 14:57 | 53.58771 | 8.76707 | 1795 ft | 108 kts | 245° |
| 2026-04-26 14:57 | 53.58486 | 8.75543 | 1889 ft | 106 kts | 249° |
| 2026-04-26 14:57 | 53.58255 | 8.74381 | 1902 ft | 106 kts | 252° |
| 2026-04-26 14:58 | 53.58038 | 8.73179 | 1850 ft | 109 kts | 253° |
| 2026-04-26 14:58 | 53.57830 | 8.71977 | 1963 ft | 105 kts | 254° |
| 2026-04-26 14:58 | 53.57634 | 8.70799 | 2036 ft | 106 kts | 251° |
| 2026-04-26 14:58 | 53.57358 | 8.69641 | 2055 ft | 107 kts | 242° |
| 2026-04-26 14:59 | 53.56981 | 8.68537 | 2023 ft | 110 kts | 242° |
| 2026-04-26 14:59 | 53.56677 | 8.67385 | 2069 ft | 105 kts | 246° |
| 2026-04-26 14:59 | 53.56383 | 8.66264 | 2120 ft | 106 kts | 243° |
| 2026-04-26 14:59 | 53.56148 | 8.65513 | 2132 ft | 108 kts | 241° |
| 2026-04-26 15:00 | 53.55681 | 8.64043 | 2165 ft | 109 kts | 240° |
| 2026-04-26 15:00 | 53.55316 | 8.62914 | 2092 ft | 111 kts | 242° |
| 2026-04-26 15:00 | 53.54937 | 8.61771 | 2161 ft | 110 kts | 239° |
| 2026-04-26 15:00 | 53.54598 | 8.60646 | 2279 ft | 107 kts | 242° |
| 2026-04-26 15:01 | 53.54269 | 8.59555 | 2374 ft | 105 kts | 240° |
| 2026-04-26 15:01 | 53.53913 | 8.58462 | 2427 ft | 108 kts | 238° |
| 2026-04-26 15:01 | 53.53492 | 8.57397 | 2438 ft | 110 kts | 232° |
| 2026-04-26 15:01 | 53.53015 | 8.56409 | 2384 ft | 110 kts | 228° |
| 2026-04-26 15:02 | 53.52490 | 8.55462 | 2368 ft | 110 kts | 222° |
| 2026-04-26 15:02 | 53.51912 | 8.54625 | 2373 ft | 110 kts | 218° |
| 2026-04-26 15:02 | 53.51299 | 8.53833 | 2293 ft | 113 kts | 220° |
| 2026-04-26 15:02 | 53.50751 | 8.52887 | 2217 ft | 111 kts | 228° |
| 2026-04-26 15:03 | 53.50264 | 8.51906 | 2220 ft | 108 kts | 230° |
| 2026-04-26 15:03 | 53.49795 | 8.50913 | 2160 ft | 111 kts | 235° |
| 2026-04-26 15:03 | 53.49386 | 8.49816 | 2118 ft | 110 kts | 238° |
| 2026-04-26 15:03 | 53.49004 | 8.48716 | 2121 ft | 108 kts | 239° |
| 2026-04-26 15:04 | 53.48627 | 8.47617 | 2052 ft | 111 kts | 240° |
| 2026-04-26 15:04 | 53.48259 | 8.46473 | 2001 ft | 112 kts | 242° |
| 2026-04-26 15:04 | 53.47903 | 8.45338 | 2009 ft | 109 kts | 241° |
| 2026-04-26 15:04 | 53.47523 | 8.44227 | 1971 ft | 111 kts | 242° |
| 2026-04-26 15:05 | 53.47249 | 8.43017 | 1964 ft | 112 kts | 256° |
| 2026-04-26 15:05 | 53.47162 | 8.42166 | 2040 ft | 110 kts | 263° |
| 2026-04-26 15:05 | 53.47230 | 8.40510 | 2141 ft | 105 kts | 282° |
| 2026-04-26 15:05 | 53.47483 | 8.39352 | 2097 ft | 107 kts | 294° |
| 2026-04-26 15:06 | 53.47826 | 8.38240 | 2088 ft | 105 kts | 297° |
| 2026-04-26 15:06 | 53.48171 | 8.37181 | 1905 ft | 97 kts | 290° |
| 2026-04-26 15:06 | 53.48513 | 8.35968 | 1362 ft | 110 kts | 288° |
| 2026-04-26 15:06 | 53.48674 | 8.34760 | 1366 ft | 108 kts | 282° |
| 2026-04-26 15:07 | 53.48941 | 8.32305 | 1581 ft | 108 kts | 282° |
| 2026-04-26 15:07 | 53.49105 | 8.31095 | 1683 ft | 104 kts | 282° |
| 2026-04-26 15:07 | 53.49276 | 8.29911 | 1705 ft | 105 kts | 285° |
| 2026-04-26 15:08 | 53.49501 | 8.28731 | 1664 ft | 108 kts | 290° |
| 2026-04-26 15:08 | 53.49691 | 8.27456 | 1509 ft | 114 kts | 279° |
| 2026-04-26 15:08 | 53.49805 | 8.26179 | 1552 ft | 107 kts | 280° |
| 2026-04-26 15:08 | 53.49890 | 8.24961 | 1615 ft | 105 kts | 276° |
| 2026-04-26 15:09 | 53.49935 | 8.23706 | 1584 ft | 109 kts | 274° |
| 2026-04-26 15:09 | 53.50001 | 8.22444 | 1583 ft | 108 kts | 277° |
| 2026-04-26 15:09 | 53.50043 | 8.21175 | 1534 ft | 111 kts | 275° |
| 2026-04-26 15:09 | 53.49905 | 8.19895 | 1470 ft | 116 kts | 250° |
| 2026-04-26 15:10 | 53.49567 | 8.18614 | 1237 ft | 122 kts | 253° |
| 2026-04-26 15:10 | 53.49472 | 8.17715 | 1178 ft | 113 kts | 270° |
| 2026-04-26 15:10 | 53.49559 | 8.15983 | 1143 ft | 109 kts | 280° |
| 2026-04-26 15:10 | 53.49614 | 8.14739 | 1019 ft | 108 kts | 272° |
| 2026-04-26 15:11 | 53.49605 | 8.13472 | 850 ft | 109 kts | 272° |
| 2026-04-26 15:11 | 53.49581 | 8.12270 | 748 ft | 101 kts | 268° |
| 2026-04-26 15:11 | 53.49507 | 8.11186 | 645 ft | 89 kts | 264° |
| 2026-04-26 15:11 | 53.49416 | 8.10237 | 703 ft | 79 kts | 259° |
| 2026-04-26 15:12 | 53.49187 | 8.09343 | 558 ft | 88 kts | 248° |
| 2026-04-26 15:12 | 53.48900 | 8.08534 | 435 ft | 74 kts | 241° |
| 2026-04-26 15:12 | 53.48713 | 8.07820 | 413 ft | 63 kts | 269° |
| 2026-04-26 15:12 | 53.48779 | 8.07091 | 377 ft | 62 kts | 298° |
| 2026-04-26 15:13 | 53.48977 | 8.06499 | 359 ft | 56 kts | 306° |
| 2026-04-26 15:13 | 53.49157 | 8.05964 | 330 ft | 49 kts | 303° |
| 2026-04-26 15:13 | 53.49309 | 8.05500 | 292 ft | 43 kts | 306° |
| 2026-04-26 15:13 | 53.49447 | 8.05064 | 174 ft | 44 kts | 302° |
| 2026-04-26 15:14 | 53.49703 | 8.04893 | 75 ft | 46 kts | 9° |
| 2026-04-26 15:14 | 53.49969 | 8.05068 | 49 ft | 38 kts | 8° |
| 2026-04-26 15:14 | 53.50204 | 8.05220 | 52 ft | 33 kts | 6° |
| 2026-04-26 15:14 | 53.50392 | 8.05349 | 48 ft | 25 kts | 6° |
| 2026-04-26 15:15 | 53.50524 | 8.05435 | 44 ft | 18 kts | 4° |
| 2026-04-26 15:15 | 53.50641 | 8.05485 | 48 ft | 18 kts | 308° |
| 2026-04-26 15:15 | 53.50645 | 8.05237 | 47 ft | 20 kts | 279° |
| 2026-04-26 15:15 | 53.50663 | 8.05095 | 42 ft | 8 kts | 349° |
| 2026-04-26 15:16 | 53.50692 | 8.05117 | 40 ft | 4 kts | 355° |
| 2026-04-26 15:16 | 53.50700 | 8.05124 | 34 ft | 0 kts | 356° |
| 2026-04-26 15:16 | 53.50699 | 8.05124 | 33 ft | 0 kts | 1° |
| 2026-04-26 15:18 | 53.50704 | 8.05125 | 40 ft | 2 kts | 9° |
| 2026-04-26 15:18 | 53.50715 | 8.05170 | 37 ft | 7 kts | 144° |
| 2026-04-26 15:18 | 53.50680 | 8.05100 | 54 ft | 15 kts | 193° |
| 2026-04-26 15:18 | 53.50657 | 8.05090 | 43 ft | 2 kts | 358° |
| 2026-04-26 15:19 | 53.50611 | 8.05062 | 42 ft | 34 kts | 186° |
| 2026-04-26 15:19 | 53.50348 | 8.05261 | 94 ft | 60 kts | 75° |
| 2026-04-26 15:19 | 53.50685 | 8.05563 | 216 ft | 59 kts | 12° |
| 2026-04-26 15:19 | 53.50434 | 8.05563 | 143 ft | 109 kts | 197° |
| 2026-04-26 15:20 | 53.50449 | 8.05204 | 95 ft | 55 kts | 345° |
| 2026-04-26 15:20 | 53.50631 | 8.05165 | 62 ft | 5 kts | 287° |
| 2026-04-26 15:20 | 53.50323 | 8.05233 | 38 ft | 85 kts | 173° |
| 2026-04-26 15:20 | 53.49919 | 8.04979 | 301 ft | 24 kts | 16° |